Airfield :
LOGIN :

Register | Disclaimer

   EN    FR    IT 

 










Legend :    VFR   Marginal VFR   IFR   Intensive IFR   Very Intensive IFR
Visi :
Ceiling :
>= 8 km
>= 3000ft
5 to 8 km
1000 to 3000 ft
1500m to 5 km
500 to 1000 ft
800 to 1500m
200 to 500 ft
< 800m
< 200 ft
Symbols :   Thunderstorms  Fog  Heavy snow  Heavy precipitations  Wind > 20 kt
SIGMETs :     Misc.  Thunderstorms  Icing  Turbulence  Mountain Waves  Volcanic Ashes






- Airport Elevation : 1302 ft
- IATA code : GNB


LFLS - Grenoble / St. Geoirs

CURRENT METAR :
  • 031930Z AUTO 02006KT 320V050 CAVOK 16/11 Q1014

EXPIRED METARs :
  • 031900Z AUTO 35005KT 290V030 9999 ///TCU 15/11 Q1014 TEMPO 36015G25KT 4000 SHRA SCT055CB
  • 031830Z AUTO VRB02KT 9999 ///TCU 14/12 Q1014 TEMPO 36015G25KT 4000 SHRA SCT055CB
  • 031800Z AUTO 01006KT 320V040 9999 FEW042/// OVC078/// ///CB 14/12 Q1014 TEMPO 36020G35KT 4000 SHRA
  • 031730Z AUTO 36011KT 9999 -RA FEW037/// BKN066/// OVC080/// ///CB 14/12 Q1014 TEMPO 36020G35KT 4000 SHRA
  • 031700Z AUTO 34016G31KT 310V030 9999 1300 R09/2000D R27/P2400 +RA FEW041/// BKN052/// BKN074/// ///CB 16/12 Q1014 TEMPO 4000 SHRA

TAF AMD TAF LFLS
Valid from the 03 at 16:00 until the 04 at 15:00 UTC


031614Z 0316/0415 35010KT 9999 BKN060
TEMPO 0316/0322 36015G25KT 4000 SHRA BKN050TCU
PROB40
TEMPO 0316/0318 36020G35KT TSRA SCT055CB
PROB30
TEMPO 0318/0320 36020G35KT TSRA SCT055CB
TEMPO 0405/0409 BKN020
ATIS : +33 4 76 65 55 89



MET'MAP, your aeronautical weather chart ! - Copyright ORBIFLY December 2007 - Disclaimer

ORBIFLY MET'MAP TEAM :

Programming & Development : Alexandra Zaïnal
Concept & original design : Baudouin d'Aumeries
Assistance for programming : Marc-Olivier Méhu
Technical & hardware support : Manuel Goepfert

Contact : metmap@orbifly.com




SOURCES & CREDITS :

   NOAA